Time;durP1;ratioP1;P1;durP2;ratioP2;P2;SDS_P1;SDS_P2;PMS_P1;PMS_P2;Temp;Humidity;BMP_temperature;BMP_pressure;BME280_temperature;BME280_humidity;BME280_pressure;Samples;Min_cycle;Max_cycle;Signal;HPM_P1;HPM_P2
2022/11/13 00:02:14;;;;;;;12.27;7.97;;;10.90;74.10;;;;;;5096235;28;20024;-14
2022/11/13 00:04:40;;;;;;;12.15;7.63;;;10.80;73.90;;;;;;5095967;28;20399;-14
2022/11/13 00:07:06;;;;;;;11.73;7.22;;;10.80;73.80;;;;;;5095681;28;20040;-13
2022/11/13 00:09:32;;;;;;;10.18;6.72;;;10.70;73.80;;;;;;5096054;28;20024;-14
2022/11/13 00:11:58;;;;;;;11.60;6.60;;;10.60;73.70;;;;;;5095788;28;20040;-13
2022/11/13 00:14:24;;;;;;;10.02;6.07;;;10.60;73.50;;;;;;5095251;28;20542;-13
2022/11/13 00:16:50;;;;;;;10.98;6.70;;;10.60;73.40;;;;;;5095452;28;20028;-14
2022/11/13 00:19:15;;;;;;;10.00;6.78;;;10.60;73.30;;;;;;5095861;28;20031;-14
2022/11/13 00:21:41;;;;;;;11.32;6.80;;;10.60;73.10;;;;;;5095646;28;20039;-13
2022/11/13 00:24:07;;;;;;;11.60;6.80;;;10.60;72.60;;;;;;5095486;28;20113;-13
2022/11/13 00:26:33;;;;;;;10.10;6.55;;;10.60;72.90;;;;;;5094026;28;20024;-13
2022/11/13 00:29:01;;;;;;;11.32;7.07;;;10.60;73.00;;;;;;5095071;28;20028;-13
2022/11/13 00:31:28;;;;;;;10.25;5.97;;;10.60;72.90;;;;;;5095307;28;20101;-14
2022/11/13 00:33:55;;;;;;;9.38;5.47;;;10.60;72.70;;;;;;5095063;28;20511;-15
2022/11/13 00:36:24;;;;;;;10.30;5.82;;;10.60;73.00;;;;;;5095227;28;20024;-14
2022/11/13 00:38:50;;;;;;;9.40;5.90;;;10.50;73.40;;;;;;5095066;28;20024;-15
2022/11/13 00:41:16;;;;;;;8.07;5.18;;;10.50;73.50;;;;;;5094924;28;20380;-16
2022/11/13 00:43:42;;;;;;;7.55;4.93;;;10.50;73.60;;;;;;5093695;28;20024;-16
2022/11/13 00:46:08;;;;;;;11.15;6.70;;;10.40;73.80;;;;;;5095049;28;20028;-15
2022/11/13 00:48:35;;;;;;;10.85;6.78;;;10.40;73.80;;;;;;5094842;28;20391;-15
2022/11/13 00:51:02;;;;;;;9.18;5.35;;;10.30;73.90;;;;;;5094728;28;20406;-16
2022/11/13 00:53:27;;;;;;;9.80;5.57;;;10.20;74.10;;;;;;5094921;28;20498;-15
2022/11/13 00:55:53;;;;;;;10.80;6.15;;;10.10;74.40;;;;;;5094872;28;20020;-15
2022/11/13 00:58:19;;;;;;;8.55;4.80;;;10.00;74.20;;;;;;5094885;28;20040;-16
2022/11/13 01:00:47;;;;;;;7.70;5.15;;;10.00;74.50;;;;;;5094795;28;20503;-15
2022/11/13 01:03:15;;;;;;;9.23;5.93;;;10.00;74.60;;;;;;5094469;28;20063;-15
2022/11/13 01:05:44;;;;;;;8.52;5.07;;;10.00;74.50;;;;;;5095086;28;20106;-16
2022/11/13 01:08:11;;;;;;;9.60;5.70;;;9.90;74.40;;;;;;5094693;28;20444;-15
2022/11/13 01:10:46;;;;;;;8.85;5.53;;;9.90;74.40;;;;;;5094658;28;20085;-16
2022/11/13 01:13:13;;;;;;;8.32;5.53;;;9.90;74.50;;;;;;5094688;28;20032;-13
2022/11/13 01:15:41;;;;;;;9.45;5.80;;;9.90;74.50;;;;;;5094022;28;20044;-14
2022/11/13 01:18:07;;;;;;;8.77;5.20;;;9.90;74.40;;;;;;5094272;28;20028;-14
2022/11/13 01:20:34;;;;;;;8.40;5.30;;;9.90;74.20;;;;;;5094724;28;20039;-14
2022/11/13 01:23:00;;;;;;;9.35;5.57;;;9.90;74.30;;;;;;5093969;28;20103;-15
2022/11/13 01:25:27;;;;;;;9.20;5.70;;;9.90;74.20;;;;;;5094447;28;20052;-15
2022/11/13 01:27:53;;;;;;;9.95;5.68;;;9.90;74.00;;;;;;5094364;28;20027;-14
2022/11/13 01:30:19;;;;;;;9.15;5.50;;;9.90;74.00;;;;;;5093997;28;20020;-14
2022/11/13 01:32:45;;;;;;;8.90;5.43;;;9.90;73.90;;;;;;5094243;28;20073;-13
2022/11/13 01:35:10;;;;;;;9.38;4.57;;;9.90;73.60;;;;;;5092398;28;20487;-14
2022/11/13 01:37:36;;;;;;;8.70;5.00;;;9.90;73.80;;;;;;5093854;28;20042;-14
2022/11/13 01:40:03;;;;;;;8.35;5.03;;;9.90;73.70;;;;;;5094333;28;20031;-14
2022/11/13 01:42:32;;;;;;;10.07;5.38;;;9.90;73.70;;;;;;5093837;28;20425;-14
2022/11/13 01:45:01;;;;;;;8.73;5.30;;;9.90;73.40;;;;;;5093847;28;20024;-15
2022/11/13 01:47:29;;;;;;;7.13;4.38;;;9.90;73.60;;;;;;5093953;28;20081;-14
2022/11/13 01:49:59;;;;;;;7.30;4.32;;;9.90;73.60;;;;;;5092472;28;20488;-14
2022/11/13 01:52:29;;;;;;;8.05;4.85;;;9.80;73.50;;;;;;5094038;28;20028;-14
2022/11/13 01:55:00;;;;;;;8.35;5.07;;;9.80;73.50;;;;;;5093314;28;20119;-14
2022/11/13 01:57:26;;;;;;;8.48;4.53;;;9.60;73.60;;;;;;5093685;28;20020;-14
2022/11/13 01:59:59;;;;;;;7.75;4.45;;;9.50;73.70;;;;;;5093949;28;20031;-15
2022/11/13 02:02:25;;;;;;;6.88;4.05;;;9.40;73.90;;;;;;5093542;28;20417;-14
2022/11/13 02:04:51;;;;;;;8.07;4.78;;;9.40;74.20;;;;;;5091995;28;20027;-13
2022/11/13 02:07:20;;;;;;;8.73;4.90;;;9.30;74.20;;;;;;5093444;28;20028;-15
2022/11/13 02:09:49;;;;;;;9.25;5.13;;;9.20;74.30;;;;;;5093738;28;20036;-15
2022/11/13 02:12:28;;;;;;;8.35;4.35;;;9.10;74.40;;;;;;5093583;28;20024;-15
2022/11/13 02:14:56;;;;;;;6.00;3.92;;;9.00;74.70;;;;;;5092905;28;20064;-15
2022/11/13 02:17:43;;;;;;;7.40;4.03;;;9.00;74.80;;;;;;5093296;28;20024;-15
2022/11/13 02:20:10;;;;;;;6.38;3.75;;;8.90;74.90;;;;;;5093439;28;20484;-15
2022/11/13 02:22:59;;;;;;;8.00;4.40;;;8.90;75.00;;;;;;5093256;28;20034;-15
2022/11/13 02:25:29;;;;;;;7.45;4.05;;;8.90;75.00;;;;;;5093278;28;20032;-15
2022/11/13 02:27:54;;;;;;;7.30;4.22;;;8.80;74.80;;;;;;5093167;28;20499;-14
2022/11/13 02:30:27;;;;;;;6.47;4.10;;;8.70;74.70;;;;;;5093109;28;20526;-15
2022/11/13 02:32:55;;;;;;;6.78;4.57;;;8.60;75.00;;;;;;5092925;28;20421;-14
2022/11/13 02:35:24;;;;;;;6.65;4.15;;;8.60;75.10;;;;;;5093342;28;20036;-15
2022/11/13 02:37:50;;;;;;;9.02;5.60;;;8.50;75.20;;;;;;5093072;28;20027;-15
2022/11/13 02:40:17;;;;;;;6.85;4.18;;;8.40;75.30;;;;;;5092961;28;20028;-15
2022/11/13 02:42:43;;;;;;;6.40;3.83;;;8.40;75.40;;;;;;5093664;28;20462;-15
2022/11/13 02:45:10;;;;;;;8.65;5.47;;;8.40;75.50;;;;;;5092846;28;20380;-15
2022/11/13 02:47:36;;;;;;;8.00;4.63;;;8.40;75.60;;;;;;5092807;28;20028;-15
2022/11/13 02:50:03;;;;;;;8.70;5.20;;;8.30;75.60;;;;;;5092942;28;20047;-15
2022/11/13 02:52:30;;;;;;;10.52;5.22;;;8.30;75.70;;;;;;5094063;28;20089;-15
2022/11/13 02:54:56;;;;;;;8.13;4.95;;;8.30;75.80;;;;;;5092775;28;20032;-15
2022/11/13 02:57:22;;;;;;;7.38;4.10;;;8.20;75.80;;;;;;5093225;28;20111;-15
2022/11/13 02:59:48;;;;;;;8.75;5.10;;;8.20;75.80;;;;;;5093202;28;20497;-15
2022/11/13 03:02:14;;;;;;;7.20;4.07;;;8.20;75.80;;;;;;5092865;28;20094;-14
2022/11/13 03:04:40;;;;;;;7.55;4.18;;;8.20;75.70;;;;;;5093125;28;20475;-15
2022/11/13 03:07:05;;;;;;;8.45;4.55;;;8.20;75.70;;;;;;5092926;28;20463;-15
2022/11/13 03:09:31;;;;;;;6.32;4.30;;;8.20;75.60;;;;;;5092767;28;20467;-14
2022/11/13 03:11:57;;;;;;;9.23;5.45;;;8.20;75.50;;;;;;5092684;28;20039;-15
2022/11/13 03:14:23;;;;;;;6.82;4.30;;;8.20;75.60;;;;;;5094867;28;20058;-15
2022/11/13 03:16:49;;;;;;;6.60;4.32;;;8.20;75.70;;;;;;5095084;28;20119;-14
2022/11/13 03:19:15;;;;;;;7.30;4.50;;;8.10;75.70;;;;;;5096656;28;20430;-15
2022/11/13 03:21:41;;;;;;;5.93;3.80;;;8.10;75.70;;;;;;5096526;28;20107;-14
2022/11/13 03:24:07;;;;;;;7.45;4.47;;;8.00;75.70;;;;;;5096451;28;20036;-15
2022/11/13 03:26:33;;;;;;;7.63;4.38;;;7.90;75.80;;;;;;5096386;28;20085;-16
2022/11/13 03:28:59;;;;;;;7.07;4.78;;;7.90;75.90;;;;;;5094874;28;20026;-14
2022/11/13 03:31:25;;;;;;;8.50;5.20;;;7.90;76.00;;;;;;5096551;28;20021;-15
2022/11/13 03:33:52;;;;;;;10.07;5.45;;;7.80;76.10;;;;;;5096581;28;20428;-15
2022/11/13 03:36:19;;;;;;;7.97;4.97;;;7.70;76.20;;;;;;5096485;28;20028;-16
2022/11/13 03:38:44;;;;;;;7.80;4.30;;;7.70;76.30;;;;;;5096510;28;20025;-14
2022/11/13 03:41:13;;;;;;;9.07;5.20;;;7.60;76.50;;;;;;5096206;28;20486;-15
2022/11/13 03:43:40;;;;;;;13.43;7.18;;;7.70;76.50;;;;;;5096401;28;20039;-14
2022/11/13 03:46:06;;;;;;;18.92;9.27;;;7.60;76.90;;;;;;5096006;28;20025;-15
2022/11/13 03:48:32;;;;;;;12.60;7.18;;;7.50;76.70;;;;;;5096227;28;20020;-16
2022/11/13 03:50:58;;;;;;;11.00;6.30;;;7.50;76.70;;;;;;5096114;28;20119;-14
2022/11/13 03:53:24;;;;;;;11.90;6.10;;;7.40;76.90;;;;;;5096704;28;20102;-16
2022/11/13 03:55:52;;;;;;;9.50;5.90;;;7.40;77.00;;;;;;5095788;28;20059;-15
2022/11/13 03:58:18;;;;;;;7.47;4.82;;;7.30;77.20;;;;;;5096045;28;20058;-14
2022/11/13 04:00:47;;;;;;;8.48;4.65;;;7.30;77.40;;;;;;5096121;28;20111;-15
2022/11/13 04:03:13;;;;;;;7.85;4.07;;;7.30;77.30;;;;;;5095793;28;20032;-15
2022/11/13 04:05:40;;;;;;;8.05;5.00;;;7.30;77.30;;;;;;5094510;28;20024;-16
2022/11/13 04:08:06;;;;;;;7.70;4.90;;;7.20;77.40;;;;;;5096541;28;20028;-15
2022/11/13 04:10:32;;;;;;;7.65;4.70;;;7.20;77.60;;;;;;5095899;28;20383;-14
2022/11/13 04:12:58;;;;;;;11.45;6.40;;;7.20;77.60;;;;;;5095415;28;20483;-13
2022/11/13 04:15:24;;;;;;;11.77;5.53;;;7.10;77.70;;;;;;5095302;28;20100;-14
2022/11/13 04:17:50;;;;;;;10.65;5.78;;;7.00;77.90;;;;;;5095734;28;20047;-14
2022/11/13 04:20:16;;;;;;;9.45;5.25;;;6.90;78.00;;;;;;5095586;28;20061;-15
2022/11/13 04:22:42;;;;;;;9.55;5.22;;;6.90;78.20;;;;;;5095673;28;20035;-14
2022/11/13 04:25:08;;;;;;;7.97;4.82;;;6.80;78.30;;;;;;5094870;28;20466;-14
2022/11/13 04:27:34;;;;;;;9.70;5.53;;;6.80;78.20;;;;;;5095231;28;20503;-14
2022/11/13 04:30:01;;;;;;;7.65;4.63;;;6.80;78.30;;;;;;5095470;28;20020;-15
2022/11/13 04:32:27;;;;;;;9.07;4.90;;;6.80;78.30;;;;;;5095283;28;20036;-15
2022/11/13 04:34:53;;;;;;;10.57;4.88;;;6.80;78.30;;;;;;5094858;28;20039;-14
2022/11/13 04:37:18;;;;;;;8.93;5.47;;;6.80;78.30;;;;;;5095303;28;20028;-15
2022/11/13 04:39:44;;;;;;;12.70;6.40;;;6.80;78.40;;;;;;5093819;28;20399;-15
2022/11/13 04:44:55;;;;;;;8.40;4.45;;;6.80;78.40;;;;;;5095100;28;20023;-13
2022/11/13 04:47:21;;;;;;;5.97;3.70;;;6.70;78.50;;;;;;5094887;28;20020;-15
2022/11/13 04:49:47;;;;;;;6.60;4.30;;;6.70;78.60;;;;;;5094734;28;20026;-14
2022/11/13 04:52:13;;;;;;;6.93;4.25;;;6.60;78.50;;;;;;5094854;28;20021;-14
2022/11/13 04:54:39;;;;;;;7.47;4.45;;;6.70;78.60;;;;;;5094766;28;20444;-15
2022/11/13 04:57:05;;;;;;;8.18;4.65;;;6.60;78.60;;;;;;5094478;28;20028;-14
2022/11/13 04:59:31;;;;;;;8.80;3.90;;;6.60;78.70;;;;;;5094903;28;20020;-14
2022/11/13 05:01:57;;;;;;;8.50;4.65;;;6.60;78.70;;;;;;5094897;28;20020;-14
2022/11/13 05:04:23;;;;;;;6.28;3.90;;;6.50;78.70;;;;;;5094858;28;20103;-15
2022/11/13 05:06:49;;;;;;;9.27;4.88;;;6.50;78.60;;;;;;5094613;28;20436;-14
2022/11/13 05:09:15;;;;;;;8.60;4.72;;;6.40;78.70;;;;;;5094760;28;20031;-14
2022/11/13 05:11:41;;;;;;;8.27;4.68;;;6.40;78.90;;;;;;5094435;28;20494;-15
2022/11/13 05:14:09;;;;;;;9.07;4.85;;;6.30;79.10;;;;;;5094086;28;20030;-15
2022/11/13 05:16:35;;;;;;;9.70;4.85;;;6.30;79.00;;;;;;5094455;28;20365;-13
2022/11/13 05:19:05;;;;;;;9.25;5.15;;;6.30;79.10;;;;;;5094059;28;20024;-16
2022/11/13 05:21:36;;;;;;;8.20;5.10;;;6.20;79.10;;;;;;5094515;28;20031;-14
2022/11/13 05:24:02;;;;;;;9.40;5.60;;;6.20;79.10;;;;;;5094379;28;20416;-14
2022/11/13 05:26:29;;;;;;;7.03;4.82;;;6.20;79.30;;;;;;5094132;28;20502;-13
2022/11/13 05:28:59;;;;;;;6.80;4.38;;;6.20;79.50;;;;;;5093998;28;20094;-13
2022/11/13 05:31:25;;;;;;;7.72;4.72;;;6.20;79.40;;;;;;5094017;28;20547;-14
2022/11/13 05:33:52;;;;;;;8.18;5.35;;;6.30;79.30;;;;;;5094337;28;20059;-14
2022/11/13 05:36:18;;;;;;;9.50;5.70;;;6.30;79.30;;;;;;5093261;28;20036;-15
2022/11/13 05:38:45;;;;;;;9.63;5.57;;;6.30;79.20;;;;;;5093956;28;20516;-15
2022/11/13 05:41:14;;;;;;;10.60;5.50;;;6.20;79.10;;;;;;5093904;28;20024;-14
2022/11/13 05:43:40;;;;;;;8.05;5.00;;;6.20;79.20;;;;;;5094128;28;20357;-14
2022/11/13 05:46:18;;;;;;;8.45;5.00;;;6.20;79.30;;;;;;5093875;28;20020;-14
2022/11/13 05:48:45;;;;;;;11.73;5.70;;;6.20;79.50;;;;;;5093740;28;20442;-13
2022/11/13 05:51:12;;;;;;;7.88;5.50;;;6.20;79.50;;;;;;5093453;28;20032;-16
2022/11/13 05:53:39;;;;;;;9.52;5.40;;;6.10;79.40;;;;;;5093635;28;20379;-14
2022/11/13 05:56:15;;;;;;;9.60;4.72;;;6.10;79.50;;;;;;5093980;28;20038;-14
2022/11/13 05:58:41;;;;;;;9.57;5.28;;;6.10;79.60;;;;;;5094215;28;20031;-14
2022/11/13 06:01:26;;;;;;;9.55;5.20;;;6.00;79.50;;;;;;5092149;28;20071;-15
2022/11/13 06:03:53;;;;;;;17.25;5.90;;;6.00;79.50;;;;;;5093502;28;20073;-14
2022/11/13 06:06:21;;;;;;;8.70;5.18;;;5.90;79.50;;;;;;5094069;28;20103;-14
2022/11/13 06:08:49;;;;;;;9.45;5.05;;;5.90;79.60;;;;;;5093491;28;20028;-15
2022/11/13 06:11:25;;;;;;;8.10;4.65;;;5.90;79.80;;;;;;5093488;28;20055;-15
2022/11/13 06:13:52;;;;;;;9.48;5.13;;;5.90;79.80;;;;;;5093195;28;20106;-16
2022/11/13 06:16:24;;;;;;;11.07;6.00;;;5.90;80.40;;;;;;5093305;28;20032;-14
2022/11/13 06:18:53;;;;;;;9.50;5.90;;;5.90;80.20;;;;;;5093214;28;20024;-14
2022/11/13 06:21:21;;;;;;;11.18;6.25;;;6.10;80.30;;;;;;5093573;28;20031;-15
2022/11/13 06:23:48;;;;;;;10.40;5.57;;;6.20;80.20;;;;;;5093270;28;20058;-14
2022/11/13 06:26:17;;;;;;;10.52;5.60;;;6.40;80.10;;;;;;5093363;28;20034;-15
2022/11/13 06:28:43;;;;;;;12.30;6.45;;;6.50;80.00;;;;;;5093375;28;20048;-14
2022/11/13 06:31:24;;;;;;;12.02;6.20;;;6.60;80.10;;;;;;5093005;28;20506;-14
2022/11/13 06:33:50;;;;;;;9.35;5.68;;;6.70;79.50;;;;;;5093079;28;20528;-14
2022/11/13 06:36:28;;;;;;;9.73;5.55;;;6.80;79.50;;;;;;5093010;28;20114;-15
2022/11/13 06:38:55;;;;;;;10.38;6.25;;;6.90;79.10;;;;;;5092986;28;20484;-14
2022/11/13 06:41:23;;;;;;;9.15;5.28;;;7.00;79.20;;;;;;5091861;28;20024;-15
2022/11/13 06:43:49;;;;;;;9.52;5.70;;;7.10;79.10;;;;;;5093781;28;20016;-14
2022/11/13 06:46:18;;;;;;;9.07;5.93;;;7.30;78.90;;;;;;5093194;28;20043;-13
2022/11/13 06:48:45;;;;;;;10.32;5.95;;;7.40;78.90;;;;;;5095087;28;20102;-14
2022/11/13 06:51:19;;;;;;;9.55;5.07;;;7.70;79.10;;;;;;5097235;28;20031;-14
2022/11/13 06:53:46;;;;;;;10.63;6.35;;;7.90;79.00;;;;;;5097138;28;20544;-15
2022/11/13 06:56:13;;;;;;;9.70;5.47;;;8.10;78.20;;;;;;5097290;28;20036;-14
2022/11/13 06:58:39;;;;;;;10.15;6.03;;;8.40;77.90;;;;;;5096942;28;20032;-14
2022/11/13 07:01:13;;;;;;;9.80;6.65;;;8.60;77.70;;;;;;5097079;28;20035;-15
2022/11/13 07:03:39;;;;;;;10.90;6.18;;;8.90;77.50;;;;;;5097189;28;20036;-15
2022/11/13 07:06:08;;;;;;;11.32;6.40;;;9.10;77.00;;;;;;5097028;28;20020;-14
2022/11/13 07:08:35;;;;;;;12.70;7.63;;;9.20;76.40;;;;;;5096826;28;20468;-14
2022/11/13 07:11:01;;;;;;;13.35;7.80;;;9.40;75.90;;;;;;5096570;28;20024;-15
2022/11/13 07:13:27;;;;;;;12.13;6.60;;;9.50;75.20;;;;;;5096721;28;20074;-14
2022/11/13 07:15:53;;;;;;;12.13;6.78;;;9.60;75.30;;;;;;5096472;28;20777;-14
2022/11/13 07:18:21;;;;;;;10.65;6.53;;;9.80;74.60;;;;;;5096761;28;20483;-14
2022/11/13 07:20:47;;;;;;;9.65;6.05;;;9.90;74.20;;;;;;5096869;28;20036;-15
2022/11/13 07:23:13;;;;;;;11.85;6.50;;;10.10;74.00;;;;;;5096425;28;20064;-15
2022/11/13 07:25:39;;;;;;;11.52;6.60;;;10.20;73.30;;;;;;5096514;28;20054;-14
2022/11/13 07:28:05;;;;;;;12.82;6.78;;;10.40;72.40;;;;;;5096409;28;20012;-14
2022/11/13 07:30:31;;;;;;;13.20;6.38;;;10.40;73.30;;;;;;5095462;28;20476;-15
2022/11/13 07:33:02;;;;;;;9.52;6.13;;;10.50;72.90;;;;;;5096178;28;20402;-15
2022/11/13 07:35:27;;;;;;;14.90;6.07;;;10.50;73.40;;;;;;5096242;28;20514;-14
2022/11/13 07:37:57;;;;;;;10.93;6.38;;;10.50;72.70;;;;;;5096202;28;20024;-14
2022/11/13 07:40:23;;;;;;;9.02;5.80;;;10.50;72.50;;;;;;5096217;28;20492;-15
2022/11/13 07:43:00;;;;;;;10.85;6.00;;;10.60;72.60;;;;;;5096125;28;20023;-14
2022/11/13 07:45:27;;;;;;;10.07;5.82;;;10.70;72.80;;;;;;5096413;28;20023;-15
2022/11/13 07:47:58;;;;;;;9.35;5.80;;;10.70;72.70;;;;;;5095931;28;20509;-14
2022/11/13 07:50:30;;;;;;;11.27;5.90;;;10.80;72.40;;;;;;5096337;28;20035;-15
2022/11/13 07:53:02;;;;;;;9.43;5.70;;;10.90;72.30;;;;;;5095922;28;20093;-16
2022/11/13 07:55:29;;;;;;;10.25;5.90;;;11.00;72.20;;;;;;5096459;28;20182;-14
2022/11/13 07:57:56;;;;;;;11.52;5.70;;;11.00;72.10;;;;;;5095967;28;20495;-15
2022/11/13 08:00:23;;;;;;;9.15;5.60;;;11.10;72.30;;;;;;5095269;28;20024;-14
2022/11/13 08:02:49;;;;;;;10.23;5.80;;;11.20;72.50;;;;;;5095664;28;20032;-15
2022/11/13 08:05:16;;;;;;;10.98;5.47;;;11.30;72.40;;;;;;5095953;28;20107;-14
2022/11/13 08:07:49;;;;;;;9.50;5.45;;;11.30;72.10;;;;;;5095977;28;20024;-14
2022/11/13 08:10:16;;;;;;;9.60;5.68;;;11.40;71.70;;;;;;5095971;28;20024;-14
2022/11/13 08:12:43;;;;;;;11.68;5.90;;;11.50;70.50;;;;;;5094298;28;20070;-14
2022/11/13 08:15:10;;;;;;;9.57;5.97;;;11.60;71.10;;;;;;5095187;28;20524;-15
2022/11/13 08:17:37;;;;;;;10.82;5.97;;;11.80;70.90;;;;;;5094230;28;20056;-14
2022/11/13 08:20:04;;;;;;;10.15;5.68;;;11.90;69.80;;;;;;5095415;28;20073;-14
2022/11/13 08:22:30;;;;;;;10.43;5.97;;;11.90;70.00;;;;;;5095305;28;20422;-14
2022/11/13 08:24:56;;;;;;;12.35;6.05;;;12.10;69.40;;;;;;5095018;28;20061;-14
2022/11/13 08:27:23;;;;;;;11.23;5.90;;;12.20;69.10;;;;;;5095629;28;20055;-14
2022/11/13 08:29:49;;;;;;;8.65;5.40;;;12.30;67.50;;;;;;5095878;28;20020;-14
2022/11/13 08:32:17;;;;;;;12.93;5.95;;;12.50;68.50;;;;;;5095648;28;20032;-14
2022/11/13 08:34:43;;;;;;;10.30;5.13;;;12.60;67.60;;;;;;5095369;28;20507;-13
2022/11/13 08:37:09;;;;;;;9.50;5.43;;;12.70;66.30;;;;;;5094830;28;20055;-14
2022/11/13 08:39:35;;;;;;;10.30;5.25;;;12.90;67.00;;;;;;5095387;28;20042;-14
2022/11/13 08:42:03;;;;;;;9.68;5.55;;;13.10;66.00;;;;;;5094988;28;20024;-14
2022/11/13 08:44:29;;;;;;;8.23;5.15;;;13.30;64.10;;;;;;5095208;28;20020;-14
2022/11/13 08:46:55;;;;;;;8.02;5.35;;;13.50;64.50;;;;;;5094710;28;20428;-14
2022/11/13 08:49:21;;;;;;;9.13;4.82;;;13.70;65.10;;;;;;5093619;28;20028;-14
2022/11/13 08:51:47;;;;;;;9.27;5.22;;;13.90;62.10;;;;;;5093912;28;20024;-14
2022/11/13 08:54:13;;;;;;;10.10;5.78;;;14.00;61.40;;;;;;5094965;28;20478;-14
2022/11/13 08:56:38;;;;;;;9.60;5.60;;;14.00;60.80;;;;;;5094713;28;20039;-13
2022/11/13 08:59:04;;;;;;;11.23;5.97;;;14.20;61.20;;;;;;5094571;28;20386;-14
2022/11/13 09:01:30;;;;;;;10.57;6.40;;;14.30;61.40;;;;;;5094975;28;20020;-13
2022/11/13 09:03:57;;;;;;;10.10;6.35;;;14.40;60.70;;;;;;5093268;28;20422;-14
2022/11/13 09:06:24;;;;;;;9.63;6.05;;;14.60;59.80;;;;;;5094394;28;20032;-14
2022/11/13 09:08:50;;;;;;;10.50;6.30;;;14.60;58.30;;;;;;5094626;28;20479;-15
2022/11/13 09:11:16;;;;;;;10.75;6.85;;;14.80;59.80;;;;;;5094357;28;20531;-14
2022/11/13 09:13:42;;;;;;;9.43;6.43;;;14.90;59.40;;;;;;5094782;28;20353;-14
2022/11/13 09:16:08;;;;;;;10.63;6.20;;;15.00;57.70;;;;;;5093964;28;20048;-14
2022/11/13 09:18:34;;;;;;;9.70;6.05;;;15.10;57.90;;;;;;5095048;28;20039;-14
2022/11/13 09:21:01;;;;;;;9.70;5.63;;;15.30;57.00;;;;;;5094012;28;20020;-13
2022/11/13 09:23:28;;;;;;;9.23;5.57;;;15.50;56.80;;;;;;5094253;28;20059;-15
2022/11/13 09:25:54;;;;;;;10.15;5.68;;;15.70;54.30;;;;;;5094151;28;20016;-14
2022/11/13 09:28:20;;;;;;;9.50;5.43;;;15.80;56.90;;;;;;5094404;28;20050;-14
2022/11/13 09:30:46;;;;;;;13.25;6.80;;;15.90;53.90;;;;;;5094152;28;20464;-14
2022/11/13 09:33:15;;;;;;;9.48;5.95;;;16.00;55.30;;;;;;5093839;28;20066;-14
2022/11/13 09:35:42;;;;;;;9.05;5.55;;;16.20;56.90;;;;;;5094197;28;20032;-14
2022/11/13 09:38:13;;;;;;;8.70;5.75;;;16.30;55.90;;;;;;5094012;28;20016;-14
2022/11/13 09:40:55;;;;;;;8.93;5.78;;;16.30;56.50;;;;;;5094268;28;20078;-14
2022/11/13 09:43:48;;;;;;;8.65;5.97;;;16.50;53.70;;;;;;5094382;28;20472;-15
2022/11/13 09:46:26;;;;;;;10.13;6.38;;;16.70;54.20;;;;;;5093883;28;20506;-14
2022/11/13 09:48:57;;;;;;;12.40;6.95;;;16.60;54.90;;;;;;5093617;28;20468;-15
2022/11/13 09:51:29;;;;;;;9.48;5.72;;;16.70;53.50;;;;;;5093748;28;20016;-15
2022/11/13 09:53:58;;;;;;;9.50;5.75;;;16.90;51.60;;;;;;5093758;28;20028;-15
2022/11/13 09:56:26;;;;;;;9.82;6.35;;;16.90;51.60;;;;;;5093889;28;20033;-14
2022/11/13 09:59:22;;;;;;;10.27;6.57;;;17.00;53.30;;;;;;5093390;28;20452;-14
2022/11/13 10:01:51;;;;;;;10.45;6.30;;;17.00;51.30;;;;;;5088294;28;20040;-15
2022/11/13 10:04:41;;;;;;;10.52;6.55;;;17.10;52.30;;;;;;5094079;28;20072;-14
2022/11/13 10:07:30;;;;;;;10.80;6.28;;;17.10;53.50;;;;;;5092819;28;20074;-14
2022/11/13 10:09:56;;;;;;;11.73;6.72;;;17.40;52.00;;;;;;5093431;28;20387;-15
2022/11/13 10:12:22;;;;;;;9.35;6.78;;;17.50;50.80;;;;;;5093706;28;20478;-14
2022/11/13 10:14:51;;;;;;;11.93;7.38;;;17.40;50.90;;;;;;5093188;28;20503;-14
2022/11/13 10:17:30;;;;;;;11.40;6.72;;;17.50;50.20;;;;;;5093217;28;20052;-14
2022/11/13 10:20:10;;;;;;;11.05;7.47;;;17.70;50.40;;;;;;5093570;28;20016;-14
2022/11/13 10:22:42;;;;;;;11.32;7.90;;;17.70;50.30;;;;;;5093178;28;20031;-14
2022/11/13 10:25:09;;;;;;;11.32;7.07;;;17.70;50.10;;;;;;5093125;28;20032;-14
2022/11/13 10:27:35;;;;;;;10.65;7.07;;;17.60;50.90;;;;;;5093194;28;20577;-14
2022/11/13 10:30:02;;;;;;;11.15;7.53;;;17.80;49.80;;;;;;5093203;28;20111;-14
2022/11/13 10:32:32;;;;;;;11.32;7.40;;;17.90;51.10;;;;;;5093152;28;20126;-14
2022/11/13 10:35:28;;;;;;;10.73;7.43;;;17.90;51.30;;;;;;5092874;28;20026;-14
2022/11/13 10:37:59;;;;;;;13.93;8.82;;;18.10;50.90;;;;;;5093446;28;20032;-14
2022/11/13 10:40:28;;;;;;;10.98;7.70;;;18.00;49.30;;;;;;5093422;28;20103;-14
2022/11/13 10:43:03;;;;;;;12.95;7.90;;;18.00;51.30;;;;;;5092999;28;20052;-15
2022/11/13 10:45:29;;;;;;;11.85;8.75;;;18.20;50.80;;;;;;5092422;28;20069;-15
2022/11/13 10:47:54;;;;;;;12.88;8.40;;;18.10;51.50;;;;;;5093139;28;20024;-14
2022/11/13 10:50:27;;;;;;;11.35;7.97;;;18.40;51.40;;;;;;5093344;28;20067;-14
2022/11/13 10:52:55;;;;;;;12.87;8.67;;;18.30;50.20;;;;;;5093082;28;20016;-14
2022/11/13 10:55:38;;;;;;;12.43;7.60;;;18.40;49.00;;;;;;5092888;28;20043;-14
2022/11/13 10:58:13;;;;;;;10.50;7.20;;;18.40;49.00;;;;;;5093227;28;20043;-14
2022/11/13 11:00:43;;;;;;;12.00;8.30;;;18.80;49.80;;;;;;5092936;28;20032;-15
2022/11/13 11:03:17;;;;;;;11.73;8.10;;;18.80;48.40;;;;;;5092547;28;20031;-14
2022/11/13 11:06:00;;;;;;;12.55;8.57;;;18.90;50.10;;;;;;5092895;28;20028;-15
2022/11/13 11:08:34;;;;;;;11.45;8.35;;;19.10;48.20;;;;;;5092928;28;20035;-14
2022/11/13 11:13:50;;;;;;;13.10;9.52;;;19.30;46.00;;;;;;5093192;28;20094;-14
2022/11/13 11:16:23;;;;;;;10.93;7.80;;;19.60;46.60;;;;;;5092476;28;20131;-13
2022/11/13 11:18:58;;;;;;;11.37;8.17;;;19.60;45.40;;;;;;5092563;28;20028;-14
2022/11/13 11:21:31;;;;;;;10.93;7.07;;;19.80;46.40;;;;;;5092724;28;20054;-14
2022/11/13 11:24:04;;;;;;;13.05;7.55;;;19.80;47.10;;;;;;5092838;28;20020;-17
2022/11/13 11:26:50;;;;;;;10.88;7.47;;;19.80;44.60;;;;;;5093024;28;20036;-14
2022/11/13 11:29:42;;;;;;;12.73;8.50;;;19.60;46.80;;;;;;5092919;28;20081;-14
2022/11/13 11:32:41;;;;;;;11.35;7.78;;;19.40;47.60;;;;;;5092501;28;20030;-14
2022/11/13 11:35:16;;;;;;;9.32;6.75;;;19.50;45.50;;;;;;5091352;28;20036;-14
2022/11/13 11:38:01;;;;;;;10.90;7.53;;;19.60;47.40;;;;;;5096370;28;20016;-14
2022/11/13 11:40:38;;;;;;;9.77;7.22;;;19.80;45.70;;;;;;5096497;28;20089;-15
2022/11/13 11:43:16;;;;;;;10.27;7.43;;;19.90;45.10;;;;;;5096118;28;20016;-15
2022/11/13 11:45:45;;;;;;;12.65;7.55;;;20.00;44.50;;;;;;5096195;28;20036;-15
2022/11/13 11:48:17;;;;;;;9.63;6.72;;;19.90;45.80;;;;;;5095882;28;20023;-14
2022/11/13 11:50:49;;;;;;;11.13;7.03;;;19.80;46.20;;;;;;5096693;28;20035;-14
2022/11/13 11:53:33;;;;;;;10.52;7.22;;;19.80;46.40;;;;;;5095954;28;20107;-14
2022/11/13 11:56:08;;;;;;;13.93;7.63;;;19.70;44.40;;;;;;5095904;28;20039;-14
2022/11/13 11:59:13;;;;;;;10.50;7.55;;;19.50;48.00;;;;;;5096058;28;20020;-14
2022/11/13 12:01:57;;;;;;;10.13;7.40;;;19.60;47.40;;;;;;5082694;28;20036;-14
2022/11/13 12:05:15;;;;;;;12.40;8.35;;;19.50;47.10;;;;;;5095771;28;20023;-15
2022/11/13 12:08:05;;;;;;;11.27;7.78;;;18.80;46.00;;;;;;5067748;28;20044;-13
2022/11/13 12:10:36;;;;;;;10.55;7.40;;;17.90;48.70;;;;;;5095664;28;20111;-13
2022/11/13 12:13:27;;;;;;;10.63;7.50;;;17.60;50.20;;;;;;5095820;28;20081;-13
2022/11/13 12:16:08;;;;;;;11.43;8.23;;;17.90;49.80;;;;;;5095309;28;20503;-14
2022/11/13 12:18:40;;;;;;;10.55;8.00;;;18.00;49.60;;;;;;5095459;28;20052;-13
2022/11/13 12:21:15;;;;;;;11.13;8.15;;;18.30;50.30;;;;;;5095179;28;20066;-13
2022/11/13 12:23:53;;;;;;;10.75;7.60;;;18.40;49.50;;;;;;5095714;28;20078;-14
2022/11/13 12:26:30;;;;;;;11.57;7.65;;;18.60;48.60;;;;;;5095697;28;20077;-13
2022/11/13 12:29:02;;;;;;;10.60;7.60;;;19.00;47.90;;;;;;5095198;28;20479;-14
2022/11/13 12:32:06;;;;;;;11.18;7.85;;;19.30;48.50;;;;;;5095355;28;20089;-14
2022/11/13 12:34:52;;;;;;;11.95;8.25;;;19.30;46.80;;;;;;5032926;28;20022;-12
2022/11/13 12:37:38;;;;;;;11.38;7.82;;;19.00;47.30;;;;;;5033129;28;20048;-13
2022/11/13 12:40:32;;;;;;;11.05;7.78;;;18.50;48.00;;;;;;5013084;28;20033;-13
2022/11/13 12:43:04;;;;;;;10.55;7.53;;;18.60;48.50;;;;;;5032871;28;20116;-13
2022/11/13 12:45:35;;;;;;;11.98;7.78;;;18.90;49.50;;;;;;5032622;28;20108;-14
2022/11/13 12:48:17;;;;;;;11.20;7.97;;;18.70;49.60;;;;;;5032725;28;20033;-14
2022/11/13 12:50:43;;;;;;;12.63;8.23;;;18.60;48.60;;;;;;5032772;28;20048;-12
2022/11/13 12:53:12;;;;;;;13.02;8.90;;;18.50;49.90;;;;;;5032453;28;20030;-14
2022/11/13 12:55:40;;;;;;;11.23;8.25;;;18.40;48.20;;;;;;5032448;28;20046;-13
2022/11/13 12:58:20;;;;;;;11.93;8.40;;;18.40;49.40;;;;;;5032664;28;20112;-13
2022/11/13 13:01:10;;;;;;;11.60;8.40;;;18.40;50.60;;;;;;5032455;28;20465;-13
2022/11/13 13:04:03;;;;;;;10.95;8.05;;;18.50;49.30;;;;;;5032333;28;20034;-14
2022/11/13 13:06:28;;;;;;;12.02;8.02;;;18.70;49.70;;;;;;5032389;28;20033;-14
2022/11/13 13:09:16;;;;;;;12.07;8.35;;;18.80;48.80;;;;;;5032036;28;20025;-13